F/V Attalaya Berria — FHCB — position and weather

sailwx.info

Track history (hours):
 
Tides and Currents Weather Stations Pressure Air Temp Water Temp Dewpoint Dewpoint Depression Visibility Wind Speed Wind Dir Waves Ship Positions

F/V Attalaya Berria

Last reported at 2015-Apr-17 04:22 UTC. Time now 2015-Apr-19 15:44 UTC.
Position N 43°22' W 001°47'.

Length 26 m.

Type: Fishing. MMSI: 228315000.

Date/timePositionNaut miles runAvg speedWind from/ knotsBaromVisibWave heightAir tempDewpointWater temp
2015-Apr-17 04:22N 43°22' W 001°47'5 6.2
2015-Apr-17 03:33N 43°24' W 001°40'1 0.8
2015-Apr-17 02:33N 43°23' W 001°40'6 5.8
2015-Apr-17 01:34N 43°29' W 001°37'1 1.2
2015-Apr-17 00:33N 43°30' W 001°36'1 0.8
2015-Apr-16 23:33N 43°29' W 001°35'2 1.6
2015-Apr-16 22:33N 43°29' W 001°37'1 0.7
2015-Apr-16 21:33N 43°29' W 001°38'0 0.3
2015-Apr-16 20:33N 43°29' W 001°37'2 1.9
2015-Apr-16 19:33N 43°28' W 001°39'5 5.0
2015-Apr-16 18:33N 43°25' W 001°44'3 0.2
2015-Apr-16 04:33N 43°22' W 001°47'7 7.2
2015-Apr-16 03:33N 43°28' W 001°40'0 0.2
2015-Apr-16 02:33N 43°27' W 001°41'4 4.4
2015-Apr-16 01:33N 43°30' W 001°35'1 1.4
2015-Apr-16 00:33N 43°31' W 001°34'4 4.0
2015-Apr-15 23:33N 43°28' W 001°39'1 1.4
2015-Apr-15 22:34N 43°28' W 001°40'2 1.8
2015-Apr-15 21:33N 43°27' W 001°38'1 1.3
2015-Apr-15 20:34N 43°29' W 001°38'1 0.7
2015-Apr-15 19:34N 43°28' W 001°39'1 1.3
2015-Apr-15 18:34N 43°27' W 001°39'1 1.4
2015-Apr-15 17:33N 43°26' W 001°41'6 0.4
2015-Apr-15 04:33N 43°24' W 001°47'4 1.8
2015-Apr-15 02:19N 43°22' W 001°52'810.6
2015-Apr-15 01:33N 43°25' W 001°42'6 6.1
2015-Apr-15 00:33N 43°30' W 001°36'3 3.4
2015-Apr-14 23:33N 43°27' W 001°39'3 2.6
2015-Apr-14 22:33N 43°26' W 001°42'4 4.2
2015-Apr-14 21:33N 43°28' W 001°37'1 1.4
2015-Apr-14 20:33N 43°29' W 001°36'4 4.0
2015-Apr-14 19:33N 43°28' W 001°41'7 6.8
2015-Apr-14 18:33N 43°22' W 001°47'0 0.0
2015-Apr-14 04:31N 43°22' W 001°47'7 7.6
2015-Apr-14 03:33N 43°28' W 001°40'2 2.1
2015-Apr-14 02:33N 43°29' W 001°38'6 5.9
2015-Apr-14 01:33N 43°25' W 001°45'7 7.0
2015-Apr-14 00:33N 43°29' W 001°36'1 0.7
2015-Apr-13 23:33N 43°29' W 001°35'4 3.5
2015-Apr-13 22:33N 43°27' W 001°38'2 1.7
2015-Apr-13 21:34N 43°28' W 001°38'1 0.6
2015-Apr-13 20:33N 43°29' W 001°38'6 6.0
2015-Apr-13 19:33N 43°25' W 001°45'4 3.7
2015-Apr-13 18:33N 43°22' W 001°47'0 0.0
2015-Apr-13 07:11N 43°22' W 001°47'3 5.0
2015-Apr-13 06:33N 43°24' W 001°51'5 2.4
2015-Apr-13 04:16N 43°19' W 001°56'6 8.1
2015-Apr-13 03:33N 43°24' W 001°50'8 8.3
2015-Apr-13 02:33N 43°27' W 001°40'3 3.3
2015-Apr-13 01:33N 43°30' W 001°37'4 4.0
2015-Apr-13 00:33N 43°33' W 001°34'2 2.5
2015-Apr-12 23:33N 43°31' W 001°34'1 1.2
2015-Apr-12 22:33N 43°30' W 001°36'2 1.8
2015-Apr-12 21:33N 43°29' W 001°38'2 2.4
2015-Apr-12 20:33N 43°27' W 001°40'2 1.7
2015-Apr-12 19:33N 43°27' W 001°42'  
2015-Apr-10 06:18N 43°22' W 001°47'4 4.8
2015-Apr-10 05:33N 43°25' W 001°44'3 3.1
2015-Apr-10 04:33N 43°23' W 001°40'5 4.5
2015-Apr-10 03:33N 43°28' W 001°41'2 2.2
2015-Apr-10 02:33N 43°29' W 001°38'2 1.7
2015-Apr-10 01:33N 43°30' W 001°37'1 0.7
2015-Apr-10 00:33N 43°30' W 001°37'1 1.2
2015-Apr-09 23:33N 43°29' W 001°38'1 1.2
2015-Apr-09 22:34N 43°30' W 001°37'1 1.3
2015-Apr-09 21:33N 43°30' W 001°36'2 2.2
2015-Apr-09 20:33N 43°28' W 001°37'4 3.9
2015-Apr-09 19:34N 43°27' W 001°42'3 0.2
2015-Apr-09 04:33N 43°24' W 001°45'4 3.9
2015-Apr-09 03:34N 43°23' W 001°40'4 3.6
2015-Apr-09 02:34N 43°24' W 001°44'5 4.6
2015-Apr-09 01:33N 43°29' W 001°46'6 5.7
2015-Apr-09 00:33N 43°26' W 001°39'2 1.9
2015-Apr-08 23:33N 43°28' W 001°41'1 0.6
2015-Apr-08 22:33N 43°28' W 001°40'5 5.3
2015-Apr-08 21:33N 43°31' W 001°34'2 2.5
2015-Apr-08 20:34N 43°30' W 001°37'4 4.1
2015-Apr-08 19:33N 43°27' W 001°41'6 6.5
2015-Apr-08 18:33N 43°22' W 001°47'0 0.0
2015-Apr-08 03:31N 43°22' W 001°47'4 3.8
2015-Apr-08 02:33N 43°25' W 001°44'2 1.9
2015-Apr-08 01:33N 43°25' W 001°41'3 3.2
2015-Apr-08 00:33N 43°27' W 001°39'1 1.3
2015-Apr-07 23:33N 43°29' W 001°39'5 4.7
2015-Apr-07 22:33N 43°31' W 001°34'4 4.2
2015-Apr-07 21:34N 43°28' W 001°37'6 6.3
2015-Apr-07 20:34N 43°25' W 001°44'1 0.7
2015-Apr-07 19:33N 43°26' W 001°44'  
Track history (hours):
 
Tides and Currents Weather Stations Pressure Air Temp Water Temp Dewpoint Dewpoint Depression Visibility Wind Speed Wind Dir Waves Ship Positions

F/V Attalaya Berria

Last reported at 2015-Apr-17 04:22 UTC. Time now 2015-Apr-19 15:44 UTC.
Position N 43°22' W 001°47'.

Length 26 m.

Type: Fishing. MMSI: 228315000.

Date/timePositionNaut miles runAvg speedWind from/ knotsBaromVisibWave heightAir tempDewpointWater temp
2015-Apr-17 04:22N 43°22' W 001°47'5 6.2
2015-Apr-17 03:33N 43°24' W 001°40'1 0.8
2015-Apr-17 02:33N 43°23' W 001°40'6 5.8
2015-Apr-17 01:34N 43°29' W 001°37'1 1.2
2015-Apr-17 00:33N 43°30' W 001°36'1 0.8
2015-Apr-16 23:33N 43°29' W 001°35'2 1.6
2015-Apr-16 22:33N 43°29' W 001°37'1 0.7
2015-Apr-16 21:33N 43°29' W 001°38'0 0.3
2015-Apr-16 20:33N 43°29' W 001°37'2 1.9
2015-Apr-16 19:33N 43°28' W 001°39'5 5.0
2015-Apr-16 18:33N 43°25' W 001°44'3 0.2
2015-Apr-16 04:33N 43°22' W 001°47'7 7.2
2015-Apr-16 03:33N 43°28' W 001°40'0 0.2
2015-Apr-16 02:33N 43°27' W 001°41'4 4.4
2015-Apr-16 01:33N 43°30' W 001°35'1 1.4
2015-Apr-16 00:33N 43°31' W 001°34'4 4.0
2015-Apr-15 23:33N 43°28' W 001°39'1 1.4
2015-Apr-15 22:34N 43°28' W 001°40'2 1.8
2015-Apr-15 21:33N 43°27' W 001°38'1 1.3
2015-Apr-15 20:34N 43°29' W 001°38'1 0.7
2015-Apr-15 19:34N 43°28' W 001°39'1 1.3
2015-Apr-15 18:34N 43°27' W 001°39'1 1.4
2015-Apr-15 17:33N 43°26' W 001°41'6 0.4
2015-Apr-15 04:33N 43°24' W 001°47'4 1.8
2015-Apr-15 02:19N 43°22' W 001°52'810.6
2015-Apr-15 01:33N 43°25' W 001°42'6 6.1
2015-Apr-15 00:33N 43°30' W 001°36'3 3.4
2015-Apr-14 23:33N 43°27' W 001°39'3 2.6
2015-Apr-14 22:33N 43°26' W 001°42'4 4.2
2015-Apr-14 21:33N 43°28' W 001°37'1 1.4
2015-Apr-14 20:33N 43°29' W 001°36'4 4.0
2015-Apr-14 19:33N 43°28' W 001°41'7 6.8
2015-Apr-14 18:33N 43°22' W 001°47'0 0.0
2015-Apr-14 04:31N 43°22' W 001°47'7 7.6
2015-Apr-14 03:33N 43°28' W 001°40'2 2.1
2015-Apr-14 02:33N 43°29' W 001°38'6 5.9
2015-Apr-14 01:33N 43°25' W 001°45'7 7.0
2015-Apr-14 00:33N 43°29' W 001°36'1 0.7
2015-Apr-13 23:33N 43°29' W 001°35'4 3.5
2015-Apr-13 22:33N 43°27' W 001°38'2 1.7
2015-Apr-13 21:34N 43°28' W 001°38'1 0.6
2015-Apr-13 20:33N 43°29' W 001°38'6 6.0
2015-Apr-13 19:33N 43°25' W 001°45'4 3.7
2015-Apr-13 18:33N 43°22' W 001°47'0 0.0
2015-Apr-13 07:11N 43°22' W 001°47'3 5.0
2015-Apr-13 06:33N 43°24' W 001°51'5 2.4
2015-Apr-13 04:16N 43°19' W 001°56'6 8.1
2015-Apr-13 03:33N 43°24' W 001°50'8 8.3
2015-Apr-13 02:33N 43°27' W 001°40'3 3.3
2015-Apr-13 01:33N 43°30' W 001°37'4 4.0
2015-Apr-13 00:33N 43°33' W 001°34'2 2.5
2015-Apr-12 23:33N 43°31' W 001°34'1 1.2
2015-Apr-12 22:33N 43°30' W 001°36'2 1.8
2015-Apr-12 21:33N 43°29' W 001°38'2 2.4
2015-Apr-12 20:33N 43°27' W 001°40'2 1.7
2015-Apr-12 19:33N 43°27' W 001°42'  
2015-Apr-10 06:18N 43°22' W 001°47'4 4.8
2015-Apr-10 05:33N 43°25' W 001°44'3 3.1
2015-Apr-10 04:33N 43°23' W 001°40'5 4.5
2015-Apr-10 03:33N 43°28' W 001°41'2 2.2
2015-Apr-10 02:33N 43°29' W 001°38'2 1.7
2015-Apr-10 01:33N 43°30' W 001°37'1 0.7
2015-Apr-10 00:33N 43°30' W 001°37'1 1.2
2015-Apr-09 23:33N 43°29' W 001°38'1 1.2
2015-Apr-09 22:34N 43°30' W 001°37'1 1.3
2015-Apr-09 21:33N 43°30' W 001°36'2 2.2
2015-Apr-09 20:33N 43°28' W 001°37'4 3.9
2015-Apr-09 19:34N 43°27' W 001°42'3 0.2
2015-Apr-09 04:33N 43°24' W 001°45'4 3.9
2015-Apr-09 03:34N 43°23' W 001°40'4 3.6
2015-Apr-09 02:34N 43°24' W 001°44'5 4.6
2015-Apr-09 01:33N 43°29' W 001°46'6 5.7
2015-Apr-09 00:33N 43°26' W 001°39'2 1.9
2015-Apr-08 23:33N 43°28' W 001°41'1 0.6
2015-Apr-08 22:33N 43°28' W 001°40'5 5.3
2015-Apr-08 21:33N 43°31' W 001°34'2 2.5
2015-Apr-08 20:34N 43°30' W 001°37'4 4.1
2015-Apr-08 19:33N 43°27' W 001°41'6 6.5
2015-Apr-08 18:33N 43°22' W 001°47'0 0.0
2015-Apr-08 03:31N 43°22' W 001°47'4 3.8
2015-Apr-08 02:33N 43°25' W 001°44'2 1.9
2015-Apr-08 01:33N 43°25' W 001°41'3 3.2
2015-Apr-08 00:33N 43°27' W 001°39'1 1.3
2015-Apr-07 23:33N 43°29' W 001°39'5 4.7
2015-Apr-07 22:33N 43°31' W 001°34'4 4.2
2015-Apr-07 21:34N 43°28' W 001°37'6 6.3
2015-Apr-07 20:34N 43°25' W 001°44'1 0.7
2015-Apr-07 19:33N 43°26' W 001°44'  

Dump ship's entire track history